Lady Nur — 3FFE2 — position and weather

sailwx.info

Track history (hours):
 
Tides and Currents Weather Stations Pressure Air Temp Water Temp Dewpoint Dewpoint Depression Visibility Wind Speed Wind Dir Waves Ship Positions

Lady Nur

Last reported at 2018-Apr-10 01:00 UTC. Time now 2018-Apr-20 12:47 UTC.
Position N 36°43' E 014°06'.
Warning: this ship's position is 10 days out of date.

Length 82 m; draft 5.4 m.

Type: Cargo ship. MMSI: 373237000.

Date/timePositionNaut miles runAvg speedWind from/ knotsBaromVisibWave heightAir tempDewpointWater temp
2018-Apr-10 01:00N 36°43' E 014°06'  
2018-Apr-06 04:38N 36°42' E 000°26'3 7.7
2018-Apr-06 04:17N 36°42' E 000°23'277 8.0
2018-Apr-04 17:33N 35°55' W 005°16'0 8.9
2018-Apr-04 17:30N 35°55' W 005°17'2 4.9
2018-Apr-04 17:00N 35°54' W 005°19'0 0.0
2018-Apr-04 16:30N 35°54' W 005°19'0 0.0
2018-Apr-04 16:00N 35°54' W 005°19'0 0.0
2018-Apr-04 15:30N 35°54' W 005°19'0 0.0
2018-Apr-04 14:59N 35°54' W 005°19'0 0.0
2018-Apr-04 14:30N 35°54' W 005°19'0 0.8
2018-Apr-04 14:01N 35°54' W 005°19'1 2.3
2018-Apr-04 13:30N 35°55' W 005°19'1 1.3
2018-Apr-04 13:00N 35°55' W 005°20'1 2.0
2018-Apr-04 12:30N 35°56' W 005°21'2 3.5
2018-Apr-04 12:00N 35°57' W 005°22'  
Track history (hours):
 
Tides and Currents Weather Stations Pressure Air Temp Water Temp Dewpoint Dewpoint Depression Visibility Wind Speed Wind Dir Waves Ship Positions

Lady Nur

Last reported at 2018-Apr-10 01:00 UTC. Time now 2018-Apr-20 12:47 UTC.
Position N 36°43' E 014°06'.
Warning: this ship's position is 10 days out of date.

Length 82 m; draft 5.4 m.

Type: Cargo ship. MMSI: 373237000.

Date/timePositionNaut miles runAvg speedWind from/ knotsBaromVisibWave heightAir tempDewpointWater temp
2018-Apr-10 01:00N 36°43' E 014°06'  
2018-Apr-06 04:38N 36°42' E 000°26'3 7.7
2018-Apr-06 04:17N 36°42' E 000°23'277 8.0
2018-Apr-04 17:33N 35°55' W 005°16'0 8.9
2018-Apr-04 17:30N 35°55' W 005°17'2 4.9
2018-Apr-04 17:00N 35°54' W 005°19'0 0.0
2018-Apr-04 16:30N 35°54' W 005°19'0 0.0
2018-Apr-04 16:00N 35°54' W 005°19'0 0.0
2018-Apr-04 15:30N 35°54' W 005°19'0 0.0
2018-Apr-04 14:59N 35°54' W 005°19'0 0.0
2018-Apr-04 14:30N 35°54' W 005°19'0 0.8
2018-Apr-04 14:01N 35°54' W 005°19'1 2.3
2018-Apr-04 13:30N 35°55' W 005°19'1 1.3
2018-Apr-04 13:00N 35°55' W 005°20'1 2.0
2018-Apr-04 12:30N 35°56' W 005°21'2 3.5
2018-Apr-04 12:00N 35°57' W 005°22'  

Dump ship's entire track history